Weather at Celje Airfield

Public forecast

Using degrees Celsius for public forecast. Weather courtesy of forecast.io.

Closest aviation weather report (METAR) to Celje Airfield

Closest report is Maribor Edvard Rusjan Airport, 23.8 nm (44.1 km) NE.

2024/05/28 04:30 (retrieved 34 minutes ago)

LJMB 280430Z AUTO 00000KT 9999 NSC 13/12 Q1015

Closest aviation forecast (TAF) to Celje Airfield

Forecast is more than 12 hours old.

Closest forecast is Lošinj Island Airport, 106.8 nm (197.7 km) SSW.

2024/05/26 14:36 Ammendment (retrieved 2 days ago)

TAF AMD LDLO 261432Z 2614/2712 CNL